Pittsburgh, Pennsylvania
Traffic Map
Current Weather Conditions
Pittsburgh, Pennsylvania
Overcast
Overcast
20°
Feels Like: 9°
Wind Chill: Ceiling: 4000
Heat Index: 20° Visibility: 10mi
Dew Point: Wind: 10mph
Humidity: 46% Direction: 320° (NW)
Pressure: 30.12in Gusts: 20mph
Raw Report DataKAGC 281553Z 32009G17KT 10SM OVC040 M07/M17 A3012 RMK AO2 SLP225 T10671167
Traffic Incident Summary
Active as of:
Severity:
Category:
InformationThere was an issue retrieving the traffic information for this location. Please try a different location or try again shortly.
Advertisements
Track Severe Weather on mobile